Airfield :







YOU CAN JOIN US ON...

 
LOGIN :

Register | Disclaimer

   EN    FR    IT 

 









Legend :    VFR   Marginal VFR   IFR   Intensive IFR   Very Intensive IFR
Visi :
Ceiling :
>= 8 km
>= 3000ft
5 to 8 km
1000 to 3000 ft
1500m to 5 km
500 to 1000 ft
800 to 1500m
200 to 500 ft
< 800m
< 200 ft
Symbols :   Thunderstorms  Fog  Heavy snow  Heavy precipitations  Wind > 20 kt







- Airport Elevation : 348 ft


KFIT - Fitchburg Municipal

CURRENT METAR :
  • 250052Z AUTO 21005KT 10SM CLR 07/M07 A2996 RMK AO2 SLP147 T00671072

EXPIRED METARs :
  • 242352Z AUTO 22003KT 10SM CLR 09/M09 A2994 RMK AO2 SLP141 T00891089 10139 20089 53005
  • 242252Z AUTO 23006KT 10SM CLR 11/M09 A2994 RMK AO2 SLP140 T01061094

TAF N/A
KZBW FIR / North America



MET'MAP, your aeronautical weather chart ! - Copyright ORBIFLY December 2007 - Disclaimer

ORBIFLY MET'MAP TEAM :

Programming & Development : Alexandra Zaïnal
Concept & Development : Baudouin d'Aumeries
Co-Development & Prog : Marc-Olivier Méhu
Technical & hardware support : Manuel Goepfert

Contact : metmap@orbifly.com




SOURCES & CREDITS :

   NOAA